createdAt,value
2017-03-19T00:00:06.336Z,0
2017-03-19T00:00:46.809Z,0
2017-03-19T00:01:27.298Z,0
2017-03-19T00:02:07.774Z,0
2017-03-19T00:02:48.234Z,0
2017-03-19T00:03:28.750Z,0
2017-03-19T00:04:09.226Z,0
2017-03-19T00:04:49.753Z,0
2017-03-19T00:05:30.211Z,0
2017-03-19T00:06:10.657Z,0
2017-03-19T00:06:51.235Z,0
2017-03-19T00:07:31.781Z,0
2017-03-19T00:08:12.198Z,0
2017-03-19T00:08:52.719Z,0
2017-03-19T00:09:33.209Z,0
2017-03-19T00:10:13.698Z,0
2017-03-19T00:10:54.181Z,0
2017-03-19T00:11:34.678Z,0
2017-03-19T00:12:15.182Z,0
2017-03-19T00:12:55.725Z,0
2017-03-19T00:13:36.205Z,0
2017-03-19T00:14:16.688Z,0
2017-03-19T00:14:57.229Z,0
2017-03-19T00:15:37.736Z,0
2017-03-19T00:16:18.198Z,0
2017-03-19T00:16:58.682Z,0
2017-03-19T00:17:39.141Z,0
2017-03-19T00:18:19.645Z,0
2017-03-19T00:19:00.102Z,0
2017-03-19T00:19:40.574Z,0
2017-03-19T00:20:21.066Z,0
2017-03-19T00:21:01.540Z,0
2017-03-19T00:21:41.990Z,0
2017-03-19T00:22:22.586Z,0
2017-03-19T00:23:03.015Z,0
2017-03-19T00:23:43.549Z,0
2017-03-19T00:24:24.097Z,0
2017-03-19T00:25:04.544Z,0
2017-03-19T00:25:45.034Z,0
2017-03-19T00:26:25.546Z,0
2017-03-19T00:27:06.012Z,0
2017-03-19T00:27:46.497Z,0
2017-03-19T00:28:27.002Z,0
2017-03-19T00:29:07.469Z,0
2017-03-19T00:29:47.987Z,0
2017-03-19T00:30:28.537Z,0
2017-03-19T00:31:08.975Z,0
2017-03-19T00:31:49.419Z,0
2017-03-19T00:32:29.939Z,0
2017-03-19T00:33:10.407Z,0
2017-03-19T00:33:50.868Z,0
2017-03-19T00:34:31.412Z,0
2017-03-19T00:35:11.883Z,0
2017-03-19T00:35:52.365Z,0
2017-03-19T00:36:32.874Z,0
2017-03-19T00:37:13.358Z,0
2017-03-19T00:37:53.818Z,0
2017-03-19T00:38:34.316Z,0
2017-03-19T00:39:14.840Z,0
2017-03-19T00:39:55.337Z,0
2017-03-19T00:40:35.793Z,0
2017-03-19T00:41:16.279Z,0
2017-03-19T00:41:56.757Z,0
2017-03-19T00:42:37.239Z,0
2017-03-19T00:43:17.709Z,0
2017-03-19T00:43:58.187Z,0
2017-03-19T00:44:38.665Z,0
2017-03-19T00:45:19.160Z,0
2017-03-19T00:45:59.653Z,0
2017-03-19T00:46:40.115Z,0
2017-03-19T00:47:20.621Z,0
2017-03-19T00:48:01.103Z,0
2017-03-19T00:48:41.542Z,0
2017-03-19T00:49:22.022Z,0
2017-03-19T00:50:02.529Z,0
2017-03-19T00:50:43.012Z,0
2017-03-19T00:51:23.546Z,0
2017-03-19T00:52:04.025Z,0
2017-03-19T00:52:44.509Z,0
2017-03-19T00:53:25.012Z,0
2017-03-19T00:54:05.490Z,0
2017-03-19T00:54:46.003Z,0
2017-03-19T00:55:26.446Z,0
2017-03-19T00:56:06.914Z,0
2017-03-19T00:56:47.394Z,0
2017-03-19T00:57:27.881Z,0
2017-03-19T00:58:08.356Z,0
2017-03-19T00:58:48.854Z,0
2017-03-19T00:59:29.337Z,0
2017-03-19T01:00:09.888Z,0
2017-03-19T01:00:50.370Z,0
2017-03-19T01:01:30.871Z,0
2017-03-19T01:02:11.387Z,0
2017-03-19T01:02:51.914Z,0
2017-03-19T01:03:32.425Z,0
2017-03-19T01:04:12.872Z,0
2017-03-19T01:04:53.398Z,0
2017-03-19T01:05:33.904Z,0
2017-03-19T01:06:14.360Z,0
2017-03-19T01:06:54.849Z,0
2017-03-19T01:07:35.324Z,0
2017-03-19T01:08:15.800Z,0
2017-03-19T01:08:56.334Z,0
2017-03-19T01:09:36.804Z,0
2017-03-19T01:10:17.301Z,0
2017-03-19T01:10:57.776Z,0
2017-03-19T01:11:38.293Z,0
2017-03-19T01:12:18.813Z,0
2017-03-19T01:12:59.309Z,0
2017-03-19T01:13:39.800Z,0
2017-03-19T01:14:20.261Z,0
2017-03-19T01:15:00.744Z,0
2017-03-19T01:15:41.249Z,0
2017-03-19T01:16:21.691Z,0
2017-03-19T01:17:02.179Z,0
2017-03-19T01:17:42.683Z,0
2017-03-19T01:18:23.217Z,0
2017-03-19T01:19:03.754Z,0
2017-03-19T01:19:44.248Z,0
2017-03-19T01:20:24.732Z,0
2017-03-19T01:21:05.219Z,0
2017-03-19T01:21:45.719Z,0
2017-03-19T01:22:26.208Z,0
2017-03-19T01:23:06.688Z,0
2017-03-19T01:23:47.212Z,0
2017-03-19T01:24:27.687Z,0
2017-03-19T01:25:08.164Z,0
2017-03-19T01:25:48.662Z,0
2017-03-19T01:26:29.138Z,0
2017-03-19T01:27:09.645Z,0
2017-03-19T01:27:50.164Z,0
2017-03-19T01:28:30.621Z,0
2017-03-19T01:29:11.116Z,0
2017-03-19T01:29:51.625Z,0
2017-03-19T01:30:32.119Z,0
2017-03-19T01:31:12.588Z,0
2017-03-19T01:31:53.166Z,0
2017-03-19T01:32:33.643Z,0
2017-03-19T01:33:14.046Z,0
2017-03-19T01:33:54.541Z,0
2017-03-19T01:34:35.042Z,0
2017-03-19T01:35:15.550Z,0
2017-03-19T01:35:56.052Z,0
2017-03-19T01:36:36.555Z,0
2017-03-19T01:37:17.012Z,0
2017-03-19T01:37:57.511Z,0
2017-03-19T01:38:38.015Z,0
2017-03-19T01:39:21.212Z,0
2017-03-19T01:40:01.679Z,0
2017-03-19T01:40:42.153Z,0
2017-03-19T01:41:22.642Z,0
2017-03-19T01:42:03.167Z,0
2017-03-19T01:42:43.636Z,0
2017-03-19T01:43:24.115Z,0
2017-03-19T01:44:04.585Z,0
2017-03-19T01:44:45.120Z,0
2017-03-19T01:45:25.580Z,0
2017-03-19T01:46:06.068Z,0
2017-03-19T01:46:46.523Z,0
2017-03-19T01:47:27.059Z,0
2017-03-19T01:48:07.533Z,0
2017-03-19T01:48:48.039Z,0
2017-03-19T01:49:28.559Z,0
2017-03-19T01:50:09.068Z,0
2017-03-19T01:50:49.543Z,0
2017-03-19T01:51:30.016Z,0
2017-03-19T01:52:10.478Z,0
2017-03-19T01:52:50.960Z,0
2017-03-19T01:53:31.470Z,0
2017-03-19T01:54:11.957Z,0
2017-03-19T01:54:52.452Z,0
2017-03-19T01:55:32.953Z,0
2017-03-19T01:56:13.456Z,0
2017-03-19T01:56:53.920Z,0
2017-03-19T01:57:34.370Z,0
2017-03-19T01:58:14.902Z,0
2017-03-19T01:58:55.352Z,0
2017-03-19T01:59:35.820Z,0
2017-03-19T02:00:16.324Z,0
2017-03-19T02:00:56.835Z,0
2017-03-19T02:01:37.260Z,0
2017-03-19T02:02:17.750Z,0
2017-03-19T02:02:58.402Z,0
2017-03-19T02:03:38.823Z,0
2017-03-19T02:04:19.330Z,0
2017-03-19T02:04:59.826Z,0
2017-03-19T02:05:40.315Z,0
2017-03-19T02:06:20.810Z,0
2017-03-19T02:07:01.285Z,0
2017-03-19T02:07:41.763Z,0
2017-03-19T02:08:22.258Z,0
2017-03-19T02:09:02.713Z,0
2017-03-19T02:09:43.204Z,0
2017-03-19T02:10:23.679Z,0
2017-03-19T02:11:04.155Z,0
2017-03-19T02:11:44.676Z,0
2017-03-19T02:12:25.105Z,0
2017-03-19T02:13:05.607Z,0
2017-03-19T02:13:46.122Z,0
2017-03-19T02:14:26.608Z,0
2017-03-19T02:15:07.122Z,0
2017-03-19T02:15:47.595Z,0
2017-03-19T02:16:28.091Z,0
2017-03-19T02:17:08.576Z,0
2017-03-19T02:17:49.035Z,0
2017-03-19T02:18:29.491Z,0
2017-03-19T02:19:10.055Z,0
2017-03-19T02:19:53.444Z,0
2017-03-19T02:20:33.940Z,0
2017-03-19T02:21:14.446Z,0
2017-03-19T02:21:54.939Z,0
2017-03-19T02:22:35.453Z,0
2017-03-19T02:23:15.910Z,0
2017-03-19T02:23:56.414Z,0
2017-03-19T02:24:36.881Z,0
2017-03-19T02:25:17.369Z,0
2017-03-19T02:25:57.840Z,0
2017-03-19T02:26:38.334Z,0
2017-03-19T02:27:18.867Z,0
2017-03-19T02:27:59.359Z,0
2017-03-19T02:28:39.874Z,0
2017-03-19T02:29:20.384Z,0
2017-03-19T02:30:00.830Z,0
2017-03-19T02:30:41.328Z,0
2017-03-19T02:31:21.808Z,0
2017-03-19T02:33:56.451Z,0
2017-03-19T02:34:36.894Z,0
2017-03-19T02:35:17.402Z,0
2017-03-19T02:35:57.871Z,0
2017-03-19T02:36:38.349Z,0
2017-03-19T02:37:18.867Z,0
2017-03-19T02:37:59.371Z,0
2017-03-19T02:38:39.854Z,0
2017-03-19T02:39:20.326Z,0
2017-03-19T02:40:00.882Z,0
2017-03-19T02:40:41.371Z,0
2017-03-19T02:41:21.849Z,0
2017-03-19T02:42:02.339Z,0
2017-03-19T02:42:42.808Z,0
2017-03-19T02:43:23.313Z,0
2017-03-19T02:44:03.849Z,0
2017-03-19T02:44:44.292Z,0
2017-03-19T02:45:24.782Z,0
2017-03-19T02:46:05.275Z,0
2017-03-19T02:46:45.749Z,0
2017-03-19T02:47:26.228Z,0
2017-03-19T02:48:06.724Z,0
2017-03-19T02:48:47.195Z,0
2017-03-19T02:49:27.673Z,0
2017-03-19T02:50:08.191Z,0
2017-03-19T02:50:48.683Z,0
2017-03-19T02:51:29.123Z,0
2017-03-19T02:52:09.671Z,0
2017-03-19T02:52:50.198Z,0
2017-03-19T02:53:30.715Z,0
2017-03-19T02:54:11.175Z,0
2017-03-19T02:54:51.659Z,0
2017-03-19T02:55:32.144Z,0
2017-03-19T02:56:12.635Z,0
2017-03-19T02:56:53.107Z,0
2017-03-19T02:57:33.600Z,0
2017-03-19T02:58:14.122Z,0
2017-03-19T02:58:54.583Z,0
2017-03-19T02:59:35.035Z,0
2017-03-19T03:00:15.543Z,0
2017-03-19T03:00:56.062Z,0
2017-03-19T03:01:36.518Z,0
2017-03-19T03:02:17.030Z,0
2017-03-19T03:02:57.482Z,0
2017-03-19T03:03:37.978Z,0
2017-03-19T03:04:18.460Z,0
2017-03-19T03:04:58.931Z,0
2017-03-19T03:05:39.410Z,0
2017-03-19T03:06:19.898Z,0
2017-03-19T03:07:00.393Z,0
2017-03-19T03:07:40.858Z,0
2017-03-19T03:08:21.319Z,0
2017-03-19T03:09:01.791Z,0
2017-03-19T03:09:42.272Z,0
2017-03-19T03:10:22.764Z,0
2017-03-19T03:11:03.235Z,0
2017-03-19T03:11:43.780Z,0
2017-03-19T03:12:24.269Z,0
2017-03-19T03:13:04.777Z,0
2017-03-19T03:13:45.296Z,0
2017-03-19T03:14:25.784Z,0
2017-03-19T03:15:06.285Z,0
2017-03-19T03:15:46.788Z,0
2017-03-19T03:16:27.244Z,0
2017-03-19T03:17:07.766Z,0
2017-03-19T03:17:48.251Z,0
2017-03-19T03:18:28.782Z,0
2017-03-19T03:19:09.262Z,0
2017-03-19T03:19:49.791Z,0
2017-03-19T03:20:30.311Z,0
2017-03-19T03:21:10.835Z,0
2017-03-19T03:21:51.328Z,0
2017-03-19T03:22:31.824Z,0
2017-03-19T03:23:12.300Z,0
2017-03-19T03:23:52.774Z,0
2017-03-19T03:24:33.241Z,0
2017-03-19T03:25:13.813Z,0
2017-03-19T03:25:54.278Z,0
2017-03-19T03:26:34.762Z,0
2017-03-19T03:27:15.250Z,0
2017-03-19T03:27:55.721Z,0
2017-03-19T03:28:36.233Z,0
2017-03-19T03:29:16.724Z,0
2017-03-19T03:29:57.209Z,0
2017-03-19T03:30:37.679Z,0
2017-03-19T03:31:18.158Z,0
2017-03-19T03:31:58.644Z,0
2017-03-19T03:32:39.118Z,0
2017-03-19T03:33:19.611Z,0
2017-03-19T03:34:00.098Z,0
2017-03-19T03:34:40.552Z,0
2017-03-19T03:35:21.064Z,0
2017-03-19T03:36:01.559Z,0
2017-03-19T03:36:42.012Z,0
2017-03-19T03:37:22.489Z,0
2017-03-19T03:38:03.015Z,0
2017-03-19T03:38:43.519Z,0
2017-03-19T03:39:23.992Z,0
2017-03-19T03:40:04.498Z,0
2017-03-19T03:40:44.963Z,0
2017-03-19T03:41:25.450Z,0
2017-03-19T03:42:05.950Z,0
2017-03-19T03:42:46.416Z,0
2017-03-19T03:43:26.876Z,0
2017-03-19T03:44:07.393Z,0
2017-03-19T03:44:47.889Z,0
2017-03-19T03:45:28.329Z,0
2017-03-19T03:46:08.830Z,0
2017-03-19T03:46:49.316Z,0
2017-03-19T03:47:29.787Z,0
2017-03-19T03:48:10.254Z,0
2017-03-19T03:48:50.752Z,0
2017-03-19T03:49:31.239Z,0
2017-03-19T03:50:11.728Z,0
2017-03-19T03:50:52.226Z,0
2017-03-19T03:51:32.688Z,0
2017-03-19T03:52:13.191Z,0
2017-03-19T03:52:53.685Z,0
2017-03-19T03:53:34.162Z,0
2017-03-19T03:54:14.626Z,0
2017-03-19T03:54:55.095Z,0
2017-03-19T03:55:35.569Z,0
2017-03-19T03:56:16.026Z,0
2017-03-19T03:56:56.503Z,0
2017-03-19T03:57:37.037Z,0
2017-03-19T03:58:17.488Z,0
2017-03-19T03:58:58.036Z,0
2017-03-19T03:59:38.478Z,0
2017-03-19T04:00:19.000Z,0
2017-03-19T04:00:59.487Z,0
2017-03-19T04:01:39.938Z,0
2017-03-19T04:02:20.414Z,0
2017-03-19T04:03:00.924Z,0
2017-03-19T04:03:41.393Z,0
2017-03-19T04:04:21.903Z,0
2017-03-19T04:05:02.366Z,0
2017-03-19T04:05:42.861Z,0
2017-03-19T04:06:23.337Z,0
2017-03-19T04:07:03.817Z,0
2017-03-19T04:07:44.351Z,0
2017-03-19T04:08:24.824Z,0
2017-03-19T04:09:05.262Z,0
2017-03-19T04:09:45.777Z,0
2017-03-19T04:10:26.299Z,0
2017-03-19T04:11:06.790Z,0
2017-03-19T04:11:47.278Z,0
2017-03-19T04:12:27.737Z,0
2017-03-19T04:13:08.262Z,0
2017-03-19T04:13:48.749Z,0
2017-03-19T04:14:29.287Z,0
2017-03-19T04:15:09.759Z,0
2017-03-19T04:15:50.241Z,0
2017-03-19T04:16:30.715Z,0
2017-03-19T04:17:11.233Z,0
2017-03-19T04:17:51.748Z,0
2017-03-19T04:18:32.203Z,0
2017-03-19T04:19:12.691Z,0
2017-03-19T04:19:53.139Z,0
2017-03-19T04:20:33.645Z,0
2017-03-19T04:21:14.142Z,0
2017-03-19T04:21:54.646Z,0
2017-03-19T04:22:35.174Z,0
2017-03-19T04:23:15.618Z,0
2017-03-19T04:23:56.105Z,0
2017-03-19T04:24:36.592Z,0
2017-03-19T04:25:17.096Z,0
2017-03-19T04:25:57.573Z,0
2017-03-19T04:26:38.085Z,0
2017-03-19T04:27:18.568Z,0
2017-03-19T04:27:59.066Z,0
2017-03-19T04:28:39.538Z,0
2017-03-19T04:29:20.029Z,0
2017-03-19T04:30:00.490Z,0
2017-03-19T04:30:41.142Z,0
2017-03-19T04:31:21.607Z,0
2017-03-19T04:32:02.104Z,0
2017-03-19T04:32:42.547Z,0
2017-03-19T04:33:23.057Z,0
2017-03-19T04:34:03.567Z,0
2017-03-19T04:34:44.045Z,0
2017-03-19T04:35:24.595Z,0
2017-03-19T04:36:05.075Z,0
2017-03-19T04:36:45.556Z,0
2017-03-19T04:37:26.102Z,0
2017-03-19T04:38:06.625Z,0
2017-03-19T04:38:47.098Z,0
2017-03-19T04:39:27.605Z,0
2017-03-19T04:40:08.131Z,0
2017-03-19T04:40:48.591Z,0
2017-03-19T04:41:29.123Z,0
2017-03-19T04:42:09.557Z,0
2017-03-19T04:42:50.069Z,0
2017-03-19T04:43:30.535Z,0
2017-03-19T04:44:11.043Z,0
2017-03-19T04:44:51.515Z,0
2017-03-19T04:45:31.985Z,0
2017-03-19T04:46:12.451Z,0
2017-03-19T04:46:52.963Z,0
2017-03-19T04:47:33.461Z,0
2017-03-19T04:48:13.972Z,0
2017-03-19T04:48:54.463Z,0
2017-03-19T04:49:34.972Z,0
2017-03-19T04:50:15.458Z,0
2017-03-19T04:50:55.991Z,0
2017-03-19T04:51:36.528Z,0
2017-03-19T04:52:17.039Z,0
2017-03-19T04:52:57.550Z,0
2017-03-19T04:53:38.018Z,0
2017-03-19T04:54:18.514Z,0
2017-03-19T04:54:58.989Z,0
2017-03-19T04:55:39.453Z,0
2017-03-19T04:56:19.925Z,0
2017-03-19T04:57:00.420Z,0
2017-03-19T04:57:40.886Z,0
2017-03-19T04:58:21.369Z,0
2017-03-19T04:59:01.883Z,0
2017-03-19T04:59:42.298Z,0
2017-03-19T05:00:22.789Z,0
2017-03-19T05:01:03.328Z,0
2017-03-19T05:01:43.820Z,0
2017-03-19T05:02:24.313Z,4
2017-03-19T05:03:04.787Z,4
2017-03-19T05:03:45.294Z,0
2017-03-19T05:04:25.945Z,0
2017-03-19T05:05:06.398Z,0
2017-03-19T05:05:46.886Z,4
2017-03-19T05:06:27.337Z,4
2017-03-19T05:07:07.835Z,4
2017-03-19T05:07:48.351Z,0
2017-03-19T05:08:28.879Z,4
2017-03-19T05:09:09.383Z,4
2017-03-19T05:09:49.889Z,4
2017-03-19T05:10:30.400Z,4
2017-03-19T05:11:10.855Z,4
2017-03-19T05:11:51.332Z,8
2017-03-19T05:12:31.818Z,4
2017-03-19T05:13:12.339Z,8
2017-03-19T05:13:52.804Z,8
2017-03-19T05:14:33.271Z,8
2017-03-19T05:15:13.750Z,12
2017-03-19T05:15:54.226Z,12
2017-03-19T05:16:34.688Z,12
2017-03-19T05:17:15.179Z,12
2017-03-19T05:17:55.660Z,12
2017-03-19T05:18:36.186Z,16
2017-03-19T05:19:16.669Z,16
2017-03-19T05:19:57.119Z,20
2017-03-19T05:20:37.618Z,20
2017-03-19T05:21:18.080Z,24
2017-03-19T05:22:01.314Z,24
2017-03-19T05:22:41.773Z,28
2017-03-19T05:23:22.256Z,28
2017-03-19T05:24:02.792Z,28
2017-03-19T05:24:43.200Z,32
2017-03-19T05:25:23.666Z,36
2017-03-19T05:26:04.153Z,40
2017-03-19T05:26:44.647Z,44
2017-03-19T05:27:25.112Z,48
2017-03-19T05:28:05.625Z,52
2017-03-19T05:28:46.148Z,52
2017-03-19T05:29:26.607Z,56
2017-03-19T05:30:07.113Z,52
2017-03-19T05:30:47.592Z,56
2017-03-19T05:31:28.084Z,56
2017-03-19T05:32:08.606Z,60
2017-03-19T05:32:49.210Z,60
2017-03-19T05:33:29.841Z,68
2017-03-19T05:34:10.292Z,68
2017-03-19T05:34:50.761Z,76
2017-03-19T05:35:31.269Z,80
2017-03-19T05:36:11.725Z,84
2017-03-19T05:36:52.205Z,92
2017-03-19T05:37:32.750Z,100
2017-03-19T05:38:13.263Z,104
2017-03-19T05:38:53.729Z,112
2017-03-19T05:39:34.200Z,120
2017-03-19T05:40:14.765Z,128
2017-03-19T05:40:55.332Z,140
2017-03-19T05:41:35.806Z,144
2017-03-19T05:42:16.290Z,152
2017-03-19T05:42:56.750Z,160
2017-03-19T05:43:37.237Z,168
2017-03-19T05:44:17.715Z,176
2017-03-19T05:44:58.200Z,176
2017-03-19T05:45:38.700Z,184
2017-03-19T05:46:19.183Z,184
2017-03-19T05:46:59.642Z,184
2017-03-19T05:47:40.167Z,192
2017-03-19T05:48:20.633Z,192
2017-03-19T05:49:01.151Z,196
2017-03-19T05:49:41.652Z,200
2017-03-19T05:50:22.113Z,200
2017-03-19T05:51:02.664Z,208
2017-03-19T05:51:43.145Z,212
2017-03-19T05:52:23.642Z,224
2017-03-19T05:53:04.171Z,236
2017-03-19T05:53:44.620Z,248
2017-03-19T05:54:25.184Z,256
2017-03-19T05:55:05.725Z,264
2017-03-19T05:55:46.202Z,272
2017-03-19T05:56:26.711Z,280
2017-03-19T05:57:07.167Z,284
2017-03-19T05:57:47.665Z,292
2017-03-19T05:58:28.125Z,300
2017-03-19T05:59:08.673Z,312
2017-03-19T05:59:49.157Z,320
2017-03-19T06:00:29.663Z,332
2017-03-19T06:01:10.163Z,348
2017-03-19T06:01:50.640Z,360
2017-03-19T06:02:31.141Z,372
2017-03-19T06:03:11.605Z,388
2017-03-19T06:03:52.080Z,392
2017-03-19T06:04:32.571Z,396
2017-03-19T06:05:13.056Z,396
2017-03-19T06:05:53.537Z,400
2017-03-19T06:06:34.078Z,400
2017-03-19T06:07:14.570Z,408
2017-03-19T06:07:55.083Z,416
2017-03-19T06:08:35.563Z,424
2017-03-19T06:09:16.065Z,448
2017-03-19T06:09:56.528Z,468
2017-03-19T06:10:37.023Z,484
2017-03-19T06:11:17.511Z,496
2017-03-19T06:11:58.038Z,492
2017-03-19T06:12:38.596Z,488
2017-03-19T06:13:19.108Z,492
2017-03-19T06:13:59.595Z,500
2017-03-19T06:14:40.055Z,512
2017-03-19T06:15:20.577Z,536
2017-03-19T06:16:01.019Z,556
2017-03-19T06:16:41.506Z,576
2017-03-19T06:17:22.024Z,592
2017-03-19T06:18:02.491Z,604
2017-03-19T06:18:43.008Z,600
2017-03-19T06:19:23.485Z,592
2017-03-19T06:20:03.953Z,584
2017-03-19T06:20:44.455Z,576
2017-03-19T06:21:24.917Z,568
2017-03-19T06:22:05.444Z,572
2017-03-19T06:22:45.867Z,592
2017-03-19T06:23:26.350Z,612
2017-03-19T06:24:06.851Z,640
2017-03-19T06:24:47.342Z,672
2017-03-19T06:25:27.831Z,696
2017-03-19T06:26:08.305Z,712
2017-03-19T06:26:48.836Z,724
2017-03-19T06:27:29.344Z,736
2017-03-19T06:28:09.802Z,752
2017-03-19T06:28:50.276Z,752
2017-03-19T06:29:30.733Z,760
2017-03-19T06:30:11.236Z,756
2017-03-19T06:30:51.733Z,752
2017-03-19T06:31:32.252Z,764
2017-03-19T06:32:12.748Z,772
2017-03-19T06:32:53.206Z,784
2017-03-19T06:33:33.686Z,800
2017-03-19T06:34:14.196Z,816
2017-03-19T06:34:54.665Z,840
2017-03-19T06:35:35.105Z,876
2017-03-19T06:36:15.648Z,924
2017-03-19T06:36:56.103Z,980
2017-03-19T06:37:36.615Z,1044
2017-03-19T06:38:17.095Z,1096
2017-03-19T06:38:57.550Z,1148
2017-03-19T06:39:38.022Z,1220
2017-03-19T06:40:18.515Z,1308
2017-03-19T06:40:59.024Z,1408
2017-03-19T06:41:39.490Z,1516
2017-03-19T06:42:19.972Z,1620
2017-03-19T06:43:00.492Z,1716
2017-03-19T06:43:40.947Z,1804
2017-03-19T06:44:21.484Z,1884
2017-03-19T06:45:02.015Z,1968
2017-03-19T06:45:42.507Z,2028
2017-03-19T06:46:22.996Z,2084
2017-03-19T06:47:03.435Z,2152
2017-03-19T06:47:43.922Z,2220
2017-03-19T06:48:24.392Z,2280
2017-03-19T06:49:04.891Z,2332
2017-03-19T06:49:45.414Z,2364
2017-03-19T06:50:25.959Z,2368
2017-03-19T06:51:06.433Z,2340
2017-03-19T06:51:46.927Z,2276
2017-03-19T06:52:27.394Z,2204
2017-03-19T06:53:07.864Z,2148
2017-03-19T06:53:48.370Z,2088
2017-03-19T06:54:28.875Z,2040
2017-03-19T06:55:09.326Z,2000
2017-03-19T06:55:49.824Z,1976
2017-03-19T06:56:30.300Z,1948
2017-03-19T06:57:10.767Z,1908
2017-03-19T06:57:51.277Z,1868
2017-03-19T06:58:31.778Z,1840
2017-03-19T06:59:12.270Z,1840
2017-03-19T06:59:52.726Z,1868
2017-03-19T07:00:33.220Z,1900
2017-03-19T07:01:13.718Z,1952
2017-03-19T07:01:54.179Z,2020
2017-03-19T07:02:34.673Z,2068
2017-03-19T07:03:15.163Z,2104
2017-03-19T07:03:55.638Z,2132
2017-03-19T07:04:36.193Z,2168
2017-03-19T07:05:16.668Z,2212
2017-03-19T07:05:57.207Z,2260
2017-03-19T07:06:37.680Z,2292
2017-03-19T07:07:18.201Z,2328
2017-03-19T07:07:58.702Z,2356
2017-03-19T07:08:39.210Z,2376
2017-03-19T07:09:19.713Z,2396
2017-03-19T07:10:00.198Z,2408
2017-03-19T07:10:40.703Z,2416
2017-03-19T07:11:21.250Z,2436
2017-03-19T07:12:01.745Z,2468
2017-03-19T07:12:42.194Z,2520
2017-03-19T07:13:22.709Z,2592
2017-03-19T07:14:03.167Z,2688
2017-03-19T07:14:43.651Z,2816
2017-03-19T07:15:24.135Z,2956
2017-03-19T07:16:04.640Z,3096
2017-03-19T07:16:45.126Z,3220
2017-03-19T07:17:25.628Z,3312
2017-03-19T07:18:06.139Z,3348
2017-03-19T07:18:46.563Z,3328
2017-03-19T07:19:27.055Z,3264
2017-03-19T07:20:07.540Z,3188
2017-03-19T07:20:48.051Z,3124
2017-03-19T07:21:28.535Z,3104
2017-03-19T07:22:09.044Z,3140
2017-03-19T07:22:49.528Z,3228
2017-03-19T07:23:30.046Z,3320
2017-03-19T07:24:10.542Z,3396
2017-03-19T07:24:51.064Z,3452
2017-03-19T07:25:31.528Z,3492
2017-03-19T07:26:11.998Z,3520
2017-03-19T07:26:52.520Z,3532
2017-03-19T07:27:32.980Z,3540
2017-03-19T07:28:13.462Z,3524
2017-03-19T07:28:53.955Z,3480
2017-03-19T07:29:34.456Z,3420
2017-03-19T07:30:14.922Z,3364
2017-03-19T07:30:55.408Z,3316
2017-03-19T07:31:35.921Z,3284
2017-03-19T07:32:16.406Z,3248
2017-03-19T07:32:56.913Z,3200
2017-03-19T07:33:37.414Z,3120
2017-03-19T07:34:17.855Z,3024
2017-03-19T07:34:58.362Z,2928
2017-03-19T07:35:38.822Z,2848
2017-03-19T07:36:19.320Z,2804
2017-03-19T07:36:59.813Z,2780
2017-03-19T07:37:40.312Z,2752
2017-03-19T07:38:20.762Z,2768
2017-03-19T07:39:01.281Z,2788
2017-03-19T07:39:41.764Z,2796
2017-03-19T07:40:22.291Z,2792
2017-03-19T07:41:02.831Z,2848
2017-03-19T07:41:43.301Z,2900
2017-03-19T07:42:23.777Z,2968
2017-03-19T07:43:04.329Z,3016
2017-03-19T07:43:44.797Z,3044
2017-03-19T07:44:25.253Z,3020
2017-03-19T07:45:05.736Z,2956
2017-03-19T07:45:46.242Z,2872
2017-03-19T07:46:26.735Z,2812
2017-03-19T07:47:07.229Z,2788
2017-03-19T07:47:47.709Z,2784
2017-03-19T07:48:28.199Z,2776
2017-03-19T07:49:08.713Z,2760
2017-03-19T07:49:49.220Z,2740
2017-03-19T07:50:29.713Z,2724
2017-03-19T07:51:10.179Z,2700
2017-03-19T07:51:50.671Z,2684
2017-03-19T07:52:31.166Z,2680
2017-03-19T07:53:11.698Z,2716
2017-03-19T07:53:52.161Z,2772
2017-03-19T07:54:32.652Z,2800
2017-03-19T07:55:13.147Z,2812
2017-03-19T07:55:53.627Z,2800
2017-03-19T07:56:34.117Z,2788
2017-03-19T07:57:14.617Z,2776
2017-03-19T07:57:55.194Z,2784
2017-03-19T07:58:35.689Z,2808
2017-03-19T07:59:16.144Z,2832
2017-03-19T07:59:56.636Z,2844
2017-03-19T08:00:37.119Z,2832
2017-03-19T08:01:17.591Z,2788
2017-03-19T08:01:58.069Z,2744
2017-03-19T08:02:38.578Z,2704
2017-03-19T08:03:19.084Z,2676
2017-03-19T08:03:59.555Z,2648
2017-03-19T08:04:40.041Z,2616
2017-03-19T08:05:20.522Z,2568
2017-03-19T08:06:00.991Z,2508
2017-03-19T08:06:41.533Z,2460
2017-03-19T08:07:21.988Z,2420
2017-03-19T08:08:02.452Z,2404
2017-03-19T08:08:42.927Z,2388
2017-03-19T08:09:23.419Z,2396
2017-03-19T08:10:03.885Z,2436
2017-03-19T08:10:44.420Z,2500
2017-03-19T08:11:24.888Z,2584
2017-03-19T08:12:05.373Z,2660
2017-03-19T08:12:45.869Z,2708
2017-03-19T08:13:26.362Z,2736
2017-03-19T08:14:06.872Z,2744
2017-03-19T08:14:47.344Z,2752
2017-03-19T08:15:27.833Z,2744
2017-03-19T08:16:08.322Z,2724
2017-03-19T08:16:48.792Z,2704
2017-03-19T08:17:29.306Z,2696
2017-03-19T08:18:09.821Z,2704
2017-03-19T08:18:50.275Z,2736
2017-03-19T08:19:30.754Z,2780
2017-03-19T08:20:11.244Z,2828
2017-03-19T08:20:51.759Z,2860
2017-03-19T08:21:32.195Z,2860
2017-03-19T08:22:12.659Z,2812
2017-03-19T08:22:53.200Z,2724
2017-03-19T08:23:33.649Z,2620
2017-03-19T08:24:14.216Z,2524
2017-03-19T08:24:54.688Z,2468
2017-03-19T08:25:35.226Z,2444
2017-03-19T08:26:15.745Z,2428
2017-03-19T08:26:56.273Z,2432
2017-03-19T08:27:36.792Z,2444
2017-03-19T08:28:17.254Z,2448
2017-03-19T08:28:57.766Z,2416
2017-03-19T08:29:38.248Z,2360
2017-03-19T08:30:18.705Z,2316
2017-03-19T08:30:59.192Z,2300
2017-03-19T08:31:39.688Z,2316
2017-03-19T08:32:20.197Z,2384
2017-03-19T08:33:00.680Z,2492
2017-03-19T08:33:41.154Z,2620
2017-03-19T08:34:21.673Z,2756
2017-03-19T08:35:02.211Z,2876
2017-03-19T08:35:42.666Z,2948
2017-03-19T08:36:23.187Z,2968
2017-03-19T08:37:03.655Z,2992
2017-03-19T08:37:44.192Z,2936
2017-03-19T08:38:24.695Z,2812
2017-03-19T08:39:05.221Z,2640
2017-03-19T08:39:45.668Z,2496
2017-03-19T08:40:26.220Z,2380
2017-03-19T08:41:06.690Z,2276
2017-03-19T08:43:40.235Z,2400
2017-03-19T08:44:20.685Z,2552
2017-03-19T08:45:01.202Z,2700
2017-03-19T08:45:41.663Z,2720
2017-03-19T08:46:22.142Z,2812
2017-03-19T08:47:02.609Z,2808
2017-03-19T08:47:43.071Z,2864
2017-03-19T08:48:23.543Z,2744
2017-03-19T08:49:04.073Z,2764
2017-03-19T08:49:44.546Z,2876
2017-03-19T08:50:25.001Z,2760
2017-03-19T08:51:05.554Z,2920
2017-03-19T08:51:46.007Z,3088
2017-03-19T08:52:26.502Z,3188
2017-03-19T08:53:06.985Z,3192
2017-03-19T08:53:47.461Z,3340
2017-03-19T08:54:27.967Z,3408
2017-03-19T08:55:08.443Z,3576
2017-03-19T08:55:48.919Z,3596
2017-03-19T08:56:29.428Z,3636
2017-03-19T08:57:09.903Z,3488
2017-03-19T08:57:50.355Z,3392
2017-03-19T08:58:30.845Z,3248
2017-03-19T08:59:11.331Z,3100
2017-03-19T08:59:51.836Z,2996
2017-03-19T09:00:32.321Z,3028
2017-03-19T09:01:12.833Z,3056
2017-03-19T09:01:53.326Z,2816
2017-03-19T09:02:33.794Z,2996
2017-03-19T09:03:14.278Z,2844
2017-03-19T09:03:54.751Z,3168
2017-03-19T09:04:35.220Z,3184
2017-03-19T09:05:15.690Z,3248
2017-03-19T09:05:56.203Z,3204
2017-03-19T09:06:36.691Z,3396
2017-03-19T09:07:17.134Z,3668
2017-03-19T09:07:57.637Z,3632
2017-03-19T09:08:38.118Z,3524
2017-03-19T09:09:18.626Z,3904
2017-03-19T09:09:59.142Z,4064
2017-03-19T09:10:39.637Z,4056
2017-03-19T09:11:20.097Z,4120
2017-03-19T09:12:00.597Z,4372
2017-03-19T09:12:41.056Z,4320
2017-03-19T09:13:21.537Z,4676
2017-03-19T09:14:02.006Z,4536
2017-03-19T09:14:42.535Z,4688
2017-03-19T09:15:23.025Z,4892
2017-03-19T09:16:03.513Z,4868
2017-03-19T09:16:44.047Z,5224
2017-03-19T09:17:24.554Z,4868
2017-03-19T09:18:05.019Z,4768
2017-03-19T09:18:45.487Z,5096
2017-03-19T09:19:25.951Z,5264
2017-03-19T09:20:06.407Z,5568
2017-03-19T09:20:46.899Z,4908
2017-03-19T09:21:27.385Z,5140
2017-03-19T09:22:07.849Z,5512
2017-03-19T09:22:48.321Z,5316
2017-03-19T09:23:28.812Z,5352
2017-03-19T09:24:09.270Z,4972
2017-03-19T09:26:23.108Z,4644
2017-03-19T09:27:03.533Z,4432
2017-03-19T09:27:44.064Z,4640
2017-03-19T09:28:24.529Z,4824
2017-03-19T09:29:05.006Z,4864
2017-03-19T09:29:45.562Z,4512
2017-03-19T09:30:26.032Z,4580
2017-03-19T09:31:06.529Z,4984
2017-03-19T09:31:46.997Z,4980
2017-03-19T09:32:27.472Z,4748
2017-03-19T09:33:07.989Z,4912
2017-03-19T09:33:48.427Z,5032
2017-03-19T09:35:46.649Z,4984
2017-03-19T09:36:27.145Z,4844
2017-03-19T09:37:08.412Z,4888
2017-03-19T09:37:48.920Z,4676
2017-03-19T09:38:29.466Z,4472
2017-03-19T09:39:09.922Z,4648
2017-03-19T09:39:50.384Z,4936
2017-03-19T09:40:30.939Z,4188